sensor_id;sensor_type;location;lat;lon;timestamp;P1;durP1;ratioP1;P2;durP2;ratioP2
56399;SDS011;42298;53.638;9.876;2023-10-09T00:02:09;7.70;;;3.60;;
56399;SDS011;42298;53.638;9.876;2023-10-09T00:04:36;8.95;;;3.50;;
56399;SDS011;42298;53.638;9.876;2023-10-09T00:07:03;10.00;;;3.50;;
56399;SDS011;42298;53.638;9.876;2023-10-09T00:09:33;8.13;;;3.33;;
56399;SDS011;42298;53.638;9.876;2023-10-09T00:12:06;5.97;;;3.15;;
56399;SDS011;42298;53.638;9.876;2023-10-09T00:14:35;7.85;;;2.83;;
56399;SDS011;42298;53.638;9.876;2023-10-09T00:17:05;10.13;;;3.22;;
56399;SDS011;42298;53.638;9.876;2023-10-09T00:19:43;7.18;;;3.38;;
56399;SDS011;42298;53.638;9.876;2023-10-09T00:22:09;6.32;;;3.08;;
56399;SDS011;42298;53.638;9.876;2023-10-09T00:24:51;6.55;;;3.17;;
56399;SDS011;42298;53.638;9.876;2023-10-09T00:27:40;9.20;;;2.90;;
56399;SDS011;42298;53.638;9.876;2023-10-09T00:30:15;8.10;;;3.30;;
56399;SDS011;42298;53.638;9.876;2023-10-09T00:32:46;6.22;;;2.70;;
56399;SDS011;42298;53.638;9.876;2023-10-09T00:35:25;7.75;;;2.80;;
56399;SDS011;42298;53.638;9.876;2023-10-09T00:38:23;7.50;;;2.85;;
56399;SDS011;42298;53.638;9.876;2023-10-09T00:40:52;9.65;;;3.13;;
56399;SDS011;42298;53.638;9.876;2023-10-09T00:43:38;6.72;;;2.80;;
56399;SDS011;42298;53.638;9.876;2023-10-09T00:46:07;8.73;;;3.28;;
56399;SDS011;42298;53.638;9.876;2023-10-09T00:48:58;6.13;;;2.88;;
56399;SDS011;42298;53.638;9.876;2023-10-09T00:51:28;6.18;;;2.70;;
56399;SDS011;42298;53.638;9.876;2023-10-09T00:54:00;8.63;;;3.20;;
56399;SDS011;42298;53.638;9.876;2023-10-09T00:56:38;6.85;;;2.60;;
56399;SDS011;42298;53.638;9.876;2023-10-09T00:59:04;9.20;;;3.42;;
56399;SDS011;42298;53.638;9.876;2023-10-09T01:01:34;6.10;;;2.75;;
56399;SDS011;42298;53.638;9.876;2023-10-09T01:04:04;5.95;;;2.60;;
56399;SDS011;42298;53.638;9.876;2023-10-09T01:06:32;6.35;;;2.72;;
56399;SDS011;42298;53.638;9.876;2023-10-09T01:09:07;5.63;;;2.58;;
56399;SDS011;42298;53.638;9.876;2023-10-09T01:11:35;5.63;;;2.50;;
56399;SDS011;42298;53.638;9.876;2023-10-09T01:14:12;7.05;;;3.05;;
56399;SDS011;42298;53.638;9.876;2023-10-09T01:16:38;4.78;;;2.65;;
56399;SDS011;42298;53.638;9.876;2023-10-09T01:19:08;7.22;;;2.70;;
56399;SDS011;42298;53.638;9.876;2023-10-09T01:21:49;7.10;;;2.88;;
56399;SDS011;42298;53.638;9.876;2023-10-09T01:24:27;5.32;;;2.65;;
56399;SDS011;42298;53.638;9.876;2023-10-09T01:26:56;9.07;;;2.72;;
56399;SDS011;42298;53.638;9.876;2023-10-09T01:29:24;6.30;;;2.83;;
56399;SDS011;42298;53.638;9.876;2023-10-09T01:31:53;9.77;;;2.95;;
56399;SDS011;42298;53.638;9.876;2023-10-09T01:34:23;6.43;;;2.70;;
56399;SDS011;42298;53.638;9.876;2023-10-09T01:36:58;9.38;;;3.15;;
56399;SDS011;42298;53.638;9.876;2023-10-09T01:42:16;8.57;;;3.13;;
56399;SDS011;42298;53.638;9.876;2023-10-09T01:44:59;6.55;;;2.88;;
56399;SDS011;42298;53.638;9.876;2023-10-09T01:47:47;6.57;;;2.78;;
56399;SDS011;42298;53.638;9.876;2023-10-09T01:50:22;8.10;;;2.75;;
56399;SDS011;42298;53.638;9.876;2023-10-09T01:52:50;6.03;;;2.47;;
56399;SDS011;42298;53.638;9.876;2023-10-09T01:55:18;9.23;;;3.00;;
56399;SDS011;42298;53.638;9.876;2023-10-09T01:58:14;5.70;;;2.70;;
56399;SDS011;42298;53.638;9.876;2023-10-09T02:00:49;7.72;;;2.80;;
56399;SDS011;42298;53.638;9.876;2023-10-09T02:03:21;8.57;;;3.13;;
56399;SDS011;42298;53.638;9.876;2023-10-09T02:05:54;9.68;;;2.83;;
56399;SDS011;42298;53.638;9.876;2023-10-09T02:08:39;8.35;;;2.60;;
56399;SDS011;42298;53.638;9.876;2023-10-09T02:11:14;5.82;;;2.90;;
56399;SDS011;42298;53.638;9.876;2023-10-09T02:13:39;7.38;;;2.72;;
56399;SDS011;42298;53.638;9.876;2023-10-09T02:16:06;7.63;;;2.60;;
56399;SDS011;42298;53.638;9.876;2023-10-09T02:18:39;5.57;;;2.53;;
56399;SDS011;42298;53.638;9.876;2023-10-09T02:21:17;6.78;;;2.70;;
56399;SDS011;42298;53.638;9.876;2023-10-09T02:23:53;5.75;;;2.45;;
56399;SDS011;42298;53.638;9.876;2023-10-09T02:26:22;6.82;;;2.63;;
56399;SDS011;42298;53.638;9.876;2023-10-09T02:28:54;7.18;;;2.70;;
56399;SDS011;42298;53.638;9.876;2023-10-09T02:31:24;6.93;;;2.72;;
56399;SDS011;42298;53.638;9.876;2023-10-09T02:33:52;6.57;;;2.90;;
56399;SDS011;42298;53.638;9.876;2023-10-09T02:36:24;7.22;;;2.28;;
56399;SDS011;42298;53.638;9.876;2023-10-09T02:38:49;6.95;;;2.60;;
56399;SDS011;42298;53.638;9.876;2023-10-09T02:41:18;6.70;;;2.55;;
56399;SDS011;42298;53.638;9.876;2023-10-09T02:43:45;6.47;;;2.50;;
56399;SDS011;42298;53.638;9.876;2023-10-09T02:46:35;6.45;;;2.50;;
56399;SDS011;42298;53.638;9.876;2023-10-09T02:49:01;7.95;;;2.45;;
56399;SDS011;42298;53.638;9.876;2023-10-09T02:51:31;6.18;;;2.47;;
56399;SDS011;42298;53.638;9.876;2023-10-09T02:54:06;5.43;;;2.17;;
56399;SDS011;42298;53.638;9.876;2023-10-09T02:56:49;5.13;;;2.30;;
56399;SDS011;42298;53.638;9.876;2023-10-09T02:59:30;9.63;;;2.75;;
56399;SDS011;42298;53.638;9.876;2023-10-09T03:01:56;5.38;;;2.30;;
56399;SDS011;42298;53.638;9.876;2023-10-09T03:04:24;5.60;;;2.58;;
56399;SDS011;42298;53.638;9.876;2023-10-09T03:06:56;7.57;;;2.70;;
56399;SDS011;42298;53.638;9.876;2023-10-09T03:09:22;5.50;;;2.40;;
56399;SDS011;42298;53.638;9.876;2023-10-09T03:11:55;9.63;;;2.75;;
56399;SDS011;42298;53.638;9.876;2023-10-09T03:14:27;6.63;;;2.65;;
56399;SDS011;42298;53.638;9.876;2023-10-09T03:16:53;6.43;;;2.25;;
56399;SDS011;42298;53.638;9.876;2023-10-09T03:19:19;3.83;;;2.15;;
56399;SDS011;42298;53.638;9.876;2023-10-09T03:21:44;9.25;;;2.60;;
56399;SDS011;42298;53.638;9.876;2023-10-09T03:24:11;11.68;;;3.05;;
56399;SDS011;42298;53.638;9.876;2023-10-09T03:26:37;5.30;;;2.50;;
56399;SDS011;42298;53.638;9.876;2023-10-09T03:29:02;7.25;;;2.80;;
56399;SDS011;42298;53.638;9.876;2023-10-09T03:31:31;7.97;;;2.75;;
56399;SDS011;42298;53.638;9.876;2023-10-09T03:33:59;5.50;;;2.80;;
56399;SDS011;42298;53.638;9.876;2023-10-09T03:36:25;6.90;;;2.60;;
56399;SDS011;42298;53.638;9.876;2023-10-09T03:38:54;7.70;;;2.95;;
56399;SDS011;42298;53.638;9.876;2023-10-09T03:41:20;6.35;;;2.47;;
56399;SDS011;42298;53.638;9.876;2023-10-09T03:43:46;5.82;;;2.35;;
56399;SDS011;42298;53.638;9.876;2023-10-09T03:46:12;7.70;;;2.78;;
56399;SDS011;42298;53.638;9.876;2023-10-09T03:48:49;6.40;;;2.75;;
56399;SDS011;42298;53.638;9.876;2023-10-09T03:51:16;7.75;;;3.08;;
56399;SDS011;42298;53.638;9.876;2023-10-09T03:53:47;8.30;;;3.10;;
56399;SDS011;42298;53.638;9.876;2023-10-09T03:56:16;5.93;;;2.35;;
56399;SDS011;42298;53.638;9.876;2023-10-09T03:58:43;5.22;;;2.50;;
56399;SDS011;42298;53.638;9.876;2023-10-09T04:01:12;3.88;;;2.28;;
56399;SDS011;42298;53.638;9.876;2023-10-09T04:03:52;8.20;;;2.90;;
56399;SDS011;42298;53.638;9.876;2023-10-09T04:06:24;8.43;;;2.53;;
56399;SDS011;42298;53.638;9.876;2023-10-09T04:09:02;6.38;;;2.55;;
56399;SDS011;42298;53.638;9.876;2023-10-09T04:11:47;7.28;;;2.70;;
56399;SDS011;42298;53.638;9.876;2023-10-09T04:14:32;5.70;;;2.50;;
56399;SDS011;42298;53.638;9.876;2023-10-09T04:16:58;6.40;;;2.60;;
56399;SDS011;42298;53.638;9.876;2023-10-09T04:19:30;9.00;;;2.53;;
56399;SDS011;42298;53.638;9.876;2023-10-09T04:22:04;9.27;;;2.83;;
56399;SDS011;42298;53.638;9.876;2023-10-09T04:24:34;6.70;;;2.38;;
56399;SDS011;42298;53.638;9.876;2023-10-09T04:27:06;6.63;;;2.45;;
56399;SDS011;42298;53.638;9.876;2023-10-09T04:29:33;6.70;;;2.47;;
56399;SDS011;42298;53.638;9.876;2023-10-09T04:32:05;5.38;;;2.40;;
56399;SDS011;42298;53.638;9.876;2023-10-09T04:34:41;6.25;;;3.03;;
56399;SDS011;42298;53.638;9.876;2023-10-09T04:37:21;7.28;;;2.70;;
56399;SDS011;42298;53.638;9.876;2023-10-09T04:40:08;6.82;;;3.05;;
56399;SDS011;42298;53.638;9.876;2023-10-09T04:43:00;5.93;;;2.50;;
56399;SDS011;42298;53.638;9.876;2023-10-09T04:45:30;6.35;;;2.80;;
56399;SDS011;42298;53.638;9.876;2023-10-09T04:48:08;4.60;;;2.33;;
56399;SDS011;42298;53.638;9.876;2023-10-09T04:50:34;7.00;;;2.50;;
56399;SDS011;42298;53.638;9.876;2023-10-09T04:53:01;7.05;;;2.55;;
56399;SDS011;42298;53.638;9.876;2023-10-09T04:55:47;5.15;;;2.35;;
56399;SDS011;42298;53.638;9.876;2023-10-09T04:58:22;7.65;;;3.00;;
56399;SDS011;42298;53.638;9.876;2023-10-09T05:00:53;6.28;;;2.45;;
56399;SDS011;42298;53.638;9.876;2023-10-09T05:03:22;8.27;;;2.63;;
56399;SDS011;42298;53.638;9.876;2023-10-09T05:05:52;7.53;;;2.85;;
56399;SDS011;42298;53.638;9.876;2023-10-09T05:08:24;6.82;;;2.60;;
56399;SDS011;42298;53.638;9.876;2023-10-09T05:10:54;6.32;;;2.80;;
56399;SDS011;42298;53.638;9.876;2023-10-09T05:13:24;6.82;;;2.70;;
56399;SDS011;42298;53.638;9.876;2023-10-09T05:16:05;5.72;;;2.75;;
56399;SDS011;42298;53.638;9.876;2023-10-09T05:18:52;7.07;;;3.15;;
56399;SDS011;42298;53.638;9.876;2023-10-09T05:21:39;6.60;;;2.65;;
56399;SDS011;42298;53.638;9.876;2023-10-09T05:24:08;7.50;;;2.85;;
56399;SDS011;42298;53.638;9.876;2023-10-09T05:26:37;6.78;;;2.80;;
56399;SDS011;42298;53.638;9.876;2023-10-09T05:29:16;6.38;;;2.75;;
56399;SDS011;42298;53.638;9.876;2023-10-09T05:32:05;7.37;;;3.07;;
56399;SDS011;42298;53.638;9.876;2023-10-09T05:34:37;7.20;;;2.65;;
56399;SDS011;42298;53.638;9.876;2023-10-09T05:37:22;7.88;;;2.75;;
56399;SDS011;42298;53.638;9.876;2023-10-09T05:39:52;6.20;;;2.65;;
56399;SDS011;42298;53.638;9.876;2023-10-09T05:42:28;8.70;;;3.00;;
56399;SDS011;42298;53.638;9.876;2023-10-09T05:45:10;8.07;;;2.95;;
56399;SDS011;42298;53.638;9.876;2023-10-09T05:47:51;8.38;;;3.00;;
56399;SDS011;42298;53.638;9.876;2023-10-09T05:50:30;7.43;;;3.13;;
56399;SDS011;42298;53.638;9.876;2023-10-09T05:52:59;8.13;;;3.08;;
56399;SDS011;42298;53.638;9.876;2023-10-09T05:55:26;8.43;;;3.30;;
56399;SDS011;42298;53.638;9.876;2023-10-09T05:58:11;7.18;;;3.38;;
56399;SDS011;42298;53.638;9.876;2023-10-09T06:11:02;9.93;;;3.83;;
56399;SDS011;42298;53.638;9.876;2023-10-09T06:18:43;9.30;;;3.70;;
56399;SDS011;42298;53.638;9.876;2023-10-09T06:21:18;10.60;;;3.33;;
56399;SDS011;42298;53.638;9.876;2023-10-09T06:24:04;7.63;;;3.05;;
56399;SDS011;42298;53.638;9.876;2023-10-09T06:26:35;8.68;;;3.40;;
56399;SDS011;42298;53.638;9.876;2023-10-09T06:29:27;8.18;;;3.22;;
56399;SDS011;42298;53.638;9.876;2023-10-09T06:32:08;8.05;;;3.05;;
56399;SDS011;42298;53.638;9.876;2023-10-09T06:34:44;8.07;;;3.42;;
56399;SDS011;42298;53.638;9.876;2023-10-09T06:37:11;9.38;;;3.78;;
56399;SDS011;42298;53.638;9.876;2023-10-09T06:39:49;8.38;;;3.78;;
56399;SDS011;42298;53.638;9.876;2023-10-09T06:42:37;8.27;;;3.58;;
56399;SDS011;42298;53.638;9.876;2023-10-09T06:45:03;10.55;;;3.80;;
56399;SDS011;42298;53.638;9.876;2023-10-09T06:47:46;8.57;;;3.70;;
56399;SDS011;42298;53.638;9.876;2023-10-09T06:50:34;8.43;;;3.47;;
56399;SDS011;42298;53.638;9.876;2023-10-09T06:53:35;7.85;;;3.30;;
56399;SDS011;42298;53.638;9.876;2023-10-09T06:56:27;9.55;;;3.55;;
56399;SDS011;42298;53.638;9.876;2023-10-09T06:59:00;7.85;;;3.00;;
56399;SDS011;42298;53.638;9.876;2023-10-09T07:01:40;8.95;;;3.22;;
56399;SDS011;42298;53.638;9.876;2023-10-09T07:04:09;8.57;;;4.03;;
56399;SDS011;42298;53.638;9.876;2023-10-09T07:06:46;7.30;;;3.92;;
56399;SDS011;42298;53.638;9.876;2023-10-09T07:09:13;7.68;;;3.88;;
56399;SDS011;42298;53.638;9.876;2023-10-09T07:11:39;8.05;;;4.10;;
56399;SDS011;42298;53.638;9.876;2023-10-09T07:14:09;7.70;;;3.47;;
56399;SDS011;42298;53.638;9.876;2023-10-09T07:19:28;7.63;;;4.15;;
56399;SDS011;42298;53.638;9.876;2023-10-09T07:21:59;8.75;;;3.90;;
56399;SDS011;42298;53.638;9.876;2023-10-09T07:24:28;6.95;;;3.67;;
56399;SDS011;42298;53.638;9.876;2023-10-09T07:27:05;7.22;;;3.53;;
56399;SDS011;42298;53.638;9.876;2023-10-09T07:29:40;8.20;;;3.75;;
56399;SDS011;42298;53.638;9.876;2023-10-09T07:32:15;11.18;;;3.80;;
56399;SDS011;42298;53.638;9.876;2023-10-09T07:34:47;8.70;;;3.67;;
56399;SDS011;42298;53.638;9.876;2023-10-09T07:37:26;7.28;;;3.80;;
56399;SDS011;42298;53.638;9.876;2023-10-09T07:40:01;6.13;;;3.40;;
56399;SDS011;42298;53.638;9.876;2023-10-09T07:42:32;6.25;;;3.60;;
56399;SDS011;42298;53.638;9.876;2023-10-09T07:45:06;6.53;;;3.22;;
56399;SDS011;42298;53.638;9.876;2023-10-09T07:47:47;5.63;;;3.60;;
56399;SDS011;42298;53.638;9.876;2023-10-09T07:50:27;7.45;;;3.55;;
56399;SDS011;42298;53.638;9.876;2023-10-09T07:53:03;6.88;;;3.63;;
56399;SDS011;42298;53.638;9.876;2023-10-09T07:55:48;8.68;;;3.97;;
56399;SDS011;42298;53.638;9.876;2023-10-09T07:58:26;5.50;;;3.00;;
56399;SDS011;42298;53.638;9.876;2023-10-09T08:00:54;6.63;;;3.72;;
56399;SDS011;42298;53.638;9.876;2023-10-09T08:03:26;10.13;;;5.30;;
56399;SDS011;42298;53.638;9.876;2023-10-09T08:05:57;15.68;;;8.73;;
56399;SDS011;42298;53.638;9.876;2023-10-09T08:08:32;7.63;;;3.80;;
56399;SDS011;42298;53.638;9.876;2023-10-09T08:10:58;7.65;;;4.22;;
56399;SDS011;42298;53.638;9.876;2023-10-09T08:13:42;7.03;;;4.03;;
56399;SDS011;42298;53.638;9.876;2023-10-09T08:16:30;7.90;;;4.18;;
56399;SDS011;42298;53.638;9.876;2023-10-09T08:19:05;9.02;;;5.47;;
56399;SDS011;42298;53.638;9.876;2023-10-09T08:22:06;8.70;;;4.13;;
56399;SDS011;42298;53.638;9.876;2023-10-09T08:24:50;6.20;;;3.40;;
56399;SDS011;42298;53.638;9.876;2023-10-09T08:27:22;5.43;;;3.47;;
56399;SDS011;42298;53.638;9.876;2023-10-09T08:32:44;6.75;;;3.70;;
56399;SDS011;42298;53.638;9.876;2023-10-09T08:35:36;7.30;;;4.28;;
56399;SDS011;42298;53.638;9.876;2023-10-09T08:38:14;7.05;;;3.42;;
56399;SDS011;42298;53.638;9.876;2023-10-09T08:40:42;6.85;;;3.60;;
56399;SDS011;42298;53.638;9.876;2023-10-09T08:43:15;7.30;;;4.15;;
56399;SDS011;42298;53.638;9.876;2023-10-09T08:45:46;8.07;;;4.53;;
56399;SDS011;42298;53.638;9.876;2023-10-09T08:48:17;9.55;;;5.03;;
56399;SDS011;42298;53.638;9.876;2023-10-09T08:50:46;7.40;;;4.32;;
56399;SDS011;42298;53.638;9.876;2023-10-09T08:53:13;8.02;;;5.10;;
56399;SDS011;42298;53.638;9.876;2023-10-09T08:55:40;6.30;;;3.97;;
56399;SDS011;42298;53.638;9.876;2023-10-09T08:58:06;9.15;;;5.43;;
56399;SDS011;42298;53.638;9.876;2023-10-09T09:00:43;7.72;;;4.78;;
56399;SDS011;42298;53.638;9.876;2023-10-09T09:03:16;5.95;;;3.83;;
56399;SDS011;42298;53.638;9.876;2023-10-09T09:05:46;7.82;;;4.55;;
56399;SDS011;42298;53.638;9.876;2023-10-09T09:08:24;6.55;;;4.10;;
56399;SDS011;42298;53.638;9.876;2023-10-09T09:11:00;6.25;;;3.70;;
56399;SDS011;42298;53.638;9.876;2023-10-09T09:13:41;7.65;;;4.00;;
56399;SDS011;42298;53.638;9.876;2023-10-09T09:18:48;6.05;;;3.75;;
56399;SDS011;42298;53.638;9.876;2023-10-09T09:21:25;6.28;;;3.95;;
56399;SDS011;42298;53.638;9.876;2023-10-09T09:23:53;6.80;;;3.95;;
56399;SDS011;42298;53.638;9.876;2023-10-09T09:26:34;7.03;;;4.43;;
56399;SDS011;42298;53.638;9.876;2023-10-09T09:29:05;5.88;;;3.65;;
56399;SDS011;42298;53.638;9.876;2023-10-09T09:31:31;7.20;;;4.32;;
56399;SDS011;42298;53.638;9.876;2023-10-09T09:34:03;9.43;;;6.72;;
56399;SDS011;42298;53.638;9.876;2023-10-09T09:36:48;9.20;;;6.57;;
56399;SDS011;42298;53.638;9.876;2023-10-09T09:39:18;12.93;;;9.27;;
56399;SDS011;42298;53.638;9.876;2023-10-09T09:41:51;6.60;;;4.68;;
56399;SDS011;42298;53.638;9.876;2023-10-09T09:44:19;5.35;;;3.78;;
56399;SDS011;42298;53.638;9.876;2023-10-09T09:46:46;4.90;;;3.42;;
56399;SDS011;42298;53.638;9.876;2023-10-09T09:49:13;4.10;;;2.95;;
56399;SDS011;42298;53.638;9.876;2023-10-09T09:51:47;5.18;;;3.30;;
56399;SDS011;42298;53.638;9.876;2023-10-09T09:54:13;6.30;;;3.60;;
56399;SDS011;42298;53.638;9.876;2023-10-09T09:56:46;6.35;;;3.65;;
56399;SDS011;42298;53.638;9.876;2023-10-09T09:59:17;8.05;;;4.78;;
56399;SDS011;42298;53.638;9.876;2023-10-09T10:01:47;5.75;;;3.72;;
56399;SDS011;42298;53.638;9.876;2023-10-09T10:04:31;6.35;;;4.43;;
56399;SDS011;42298;53.638;9.876;2023-10-09T10:07:00;8.88;;;4.78;;
56399;SDS011;42298;53.638;9.876;2023-10-09T10:09:38;6.57;;;4.47;;
56399;SDS011;42298;53.638;9.876;2023-10-09T10:12:09;7.57;;;4.75;;
56399;SDS011;42298;53.638;9.876;2023-10-09T10:14:51;8.07;;;4.95;;
56399;SDS011;42298;53.638;9.876;2023-10-09T10:17:17;7.72;;;5.35;;
56399;SDS011;42298;53.638;9.876;2023-10-09T10:19:58;7.45;;;5.15;;
56399;SDS011;42298;53.638;9.876;2023-10-09T10:22:43;8.60;;;5.53;;
56399;SDS011;42298;53.638;9.876;2023-10-09T10:31:14;8.40;;;4.90;;
56399;SDS011;42298;53.638;9.876;2023-10-09T10:36:21;9.00;;;5.38;;
56399;SDS011;42298;53.638;9.876;2023-10-09T10:38:59;9.82;;;5.95;;
56399;SDS011;42298;53.638;9.876;2023-10-09T10:41:30;9.00;;;5.72;;
56399;SDS011;42298;53.638;9.876;2023-10-09T10:44:04;7.63;;;4.78;;
56399;SDS011;42298;53.638;9.876;2023-10-09T10:46:49;8.43;;;5.25;;
56399;SDS011;42298;53.638;9.876;2023-10-09T10:49:17;6.85;;;4.38;;
56399;SDS011;42298;53.638;9.876;2023-10-09T10:51:47;8.80;;;5.45;;
56399;SDS011;42298;53.638;9.876;2023-10-09T10:54:20;8.45;;;5.00;;
56399;SDS011;42298;53.638;9.876;2023-10-09T10:56:58;9.07;;;6.20;;
56399;SDS011;42298;53.638;9.876;2023-10-09T10:59:25;9.00;;;6.45;;
56399;SDS011;42298;53.638;9.876;2023-10-09T11:01:59;9.15;;;5.70;;
56399;SDS011;42298;53.638;9.876;2023-10-09T11:04:25;8.65;;;5.85;;
56399;SDS011;42298;53.638;9.876;2023-10-09T11:06:54;9.00;;;5.78;;
56399;SDS011;42298;53.638;9.876;2023-10-09T11:09:26;8.68;;;5.07;;
56399;SDS011;42298;53.638;9.876;2023-10-09T11:12:04;10.27;;;5.13;;
56399;SDS011;42298;53.638;9.876;2023-10-09T11:14:47;7.05;;;4.50;;
56399;SDS011;42298;53.638;9.876;2023-10-09T11:17:37;11.32;;;7.43;;
56399;SDS011;42298;53.638;9.876;2023-10-09T11:20:04;13.52;;;8.70;;
56399;SDS011;42298;53.638;9.876;2023-10-09T11:22:51;6.45;;;4.18;;
56399;SDS011;42298;53.638;9.876;2023-10-09T11:25:35;4.43;;;3.03;;
56399;SDS011;42298;53.638;9.876;2023-10-09T11:28:03;6.15;;;3.78;;
56399;SDS011;42298;53.638;9.876;2023-10-09T11:30:48;6.72;;;4.13;;
56399;SDS011;42298;53.638;9.876;2023-10-09T11:33:20;4.65;;;3.30;;
56399;SDS011;42298;53.638;9.876;2023-10-09T11:35:56;9.45;;;5.53;;
56399;SDS011;42298;53.638;9.876;2023-10-09T11:38:23;6.57;;;4.15;;
56399;SDS011;42298;53.638;9.876;2023-10-09T11:40:50;7.22;;;4.28;;
56399;SDS011;42298;53.638;9.876;2023-10-09T11:43:19;6.97;;;4.10;;
56399;SDS011;42298;53.638;9.876;2023-10-09T11:46:10;5.85;;;3.70;;
56399;SDS011;42298;53.638;9.876;2023-10-09T11:49:05;4.93;;;3.22;;
56399;SDS011;42298;53.638;9.876;2023-10-09T11:51:43;9.25;;;5.22;;
56399;SDS011;42298;53.638;9.876;2023-10-09T11:54:32;10.95;;;6.10;;
56399;SDS011;42298;53.638;9.876;2023-10-09T11:56:59;8.10;;;4.60;;
56399;SDS011;42298;53.638;9.876;2023-10-09T11:59:28;8.65;;;4.70;;
56399;SDS011;42298;53.638;9.876;2023-10-09T12:01:59;5.28;;;3.50;;
56399;SDS011;42298;53.638;9.876;2023-10-09T12:04:26;7.40;;;3.75;;
56399;SDS011;42298;53.638;9.876;2023-10-09T12:06:55;4.88;;;3.05;;
56399;SDS011;42298;53.638;9.876;2023-10-09T12:09:31;10.77;;;5.95;;
56399;SDS011;42298;53.638;9.876;2023-10-09T12:11:59;9.82;;;5.55;;
56399;SDS011;42298;53.638;9.876;2023-10-09T12:14:28;12.35;;;6.82;;
56399;SDS011;42298;53.638;9.876;2023-10-09T12:16:58;7.15;;;4.28;;
56399;SDS011;42298;53.638;9.876;2023-10-09T12:19:34;7.30;;;4.53;;
56399;SDS011;42298;53.638;9.876;2023-10-09T12:22:01;10.38;;;5.38;;
56399;SDS011;42298;53.638;9.876;2023-10-09T12:24:29;19.98;;;13.73;;
56399;SDS011;42298;53.638;9.876;2023-10-09T12:26:55;18.90;;;11.32;;
56399;SDS011;42298;53.638;9.876;2023-10-09T12:29:20;11.13;;;6.50;;
56399;SDS011;42298;53.638;9.876;2023-10-09T12:31:46;10.65;;;5.82;;
56399;SDS011;42298;53.638;9.876;2023-10-09T12:34:12;5.78;;;4.20;;
56399;SDS011;42298;53.638;9.876;2023-10-09T12:36:47;8.60;;;4.80;;
56399;SDS011;42298;53.638;9.876;2023-10-09T12:39:14;11.90;;;7.30;;
56399;SDS011;42298;53.638;9.876;2023-10-09T12:41:46;7.13;;;4.63;;
56399;SDS011;42298;53.638;9.876;2023-10-09T12:44:13;9.13;;;5.20;;
56399;SDS011;42298;53.638;9.876;2023-10-09T12:46:44;5.93;;;4.07;;
56399;SDS011;42298;53.638;9.876;2023-10-09T12:49:20;7.28;;;4.25;;
56399;SDS011;42298;53.638;9.876;2023-10-09T12:51:52;7.57;;;5.03;;
56399;SDS011;42298;53.638;9.876;2023-10-09T12:54:18;9.35;;;5.60;;
56399;SDS011;42298;53.638;9.876;2023-10-09T12:56:52;8.05;;;5.72;;
56399;SDS011;42298;53.638;9.876;2023-10-09T12:59:18;8.80;;;5.53;;
56399;SDS011;42298;53.638;9.876;2023-10-09T13:01:45;6.53;;;4.85;;
56399;SDS011;42298;53.638;9.876;2023-10-09T13:04:16;9.02;;;5.63;;
56399;SDS011;42298;53.638;9.876;2023-10-09T13:06:42;7.25;;;5.40;;
56399;SDS011;42298;53.638;9.876;2023-10-09T13:09:10;10.10;;;6.45;;
56399;SDS011;42298;53.638;9.876;2023-10-09T13:11:41;7.65;;;5.60;;
56399;SDS011;42298;53.638;9.876;2023-10-09T13:14:09;10.23;;;6.32;;
56399;SDS011;42298;53.638;9.876;2023-10-09T13:16:47;6.50;;;4.93;;
56399;SDS011;42298;53.638;9.876;2023-10-09T13:19:17;9.15;;;5.63;;
56399;SDS011;42298;53.638;9.876;2023-10-09T13:21:43;8.25;;;5.55;;
56399;SDS011;42298;53.638;9.876;2023-10-09T13:24:09;8.02;;;5.28;;
56399;SDS011;42298;53.638;9.876;2023-10-09T13:26:38;9.10;;;5.88;;
56399;SDS011;42298;53.638;9.876;2023-10-09T13:29:09;9.93;;;7.38;;
56399;SDS011;42298;53.638;9.876;2023-10-09T13:31:38;8.52;;;5.20;;
56399;SDS011;42298;53.638;9.876;2023-10-09T13:34:11;10.07;;;6.97;;
56399;SDS011;42298;53.638;9.876;2023-10-09T13:36:41;9.70;;;6.38;;
56399;SDS011;42298;53.638;9.876;2023-10-09T13:39:24;10.52;;;7.30;;
56399;SDS011;42298;53.638;9.876;2023-10-09T13:41:57;8.45;;;5.85;;
56399;SDS011;42298;53.638;9.876;2023-10-09T13:44:24;10.20;;;6.72;;
56399;SDS011;42298;53.638;9.876;2023-10-09T13:46:54;10.82;;;7.03;;
56399;SDS011;42298;53.638;9.876;2023-10-09T13:49:20;11.23;;;6.88;;
56399;SDS011;42298;53.638;9.876;2023-10-09T13:51:47;12.57;;;8.13;;
56399;SDS011;42298;53.638;9.876;2023-10-09T13:54:15;10.90;;;7.13;;
56399;SDS011;42298;53.638;9.876;2023-10-09T13:56:56;10.40;;;6.85;;
56399;SDS011;42298;53.638;9.876;2023-10-09T13:59:22;9.25;;;5.93;;
56399;SDS011;42298;53.638;9.876;2023-10-09T14:01:50;9.25;;;6.00;;
56399;SDS011;42298;53.638;9.876;2023-10-09T14:04:16;8.55;;;5.60;;
56399;SDS011;42298;53.638;9.876;2023-10-09T14:06:44;9.23;;;5.22;;
56399;SDS011;42298;53.638;9.876;2023-10-09T14:09:10;9.75;;;5.65;;
56399;SDS011;42298;53.638;9.876;2023-10-09T14:11:52;8.68;;;5.65;;
56399;SDS011;42298;53.638;9.876;2023-10-09T14:14:18;10.35;;;5.70;;
56399;SDS011;42298;53.638;9.876;2023-10-09T14:16:50;8.50;;;5.50;;
56399;SDS011;42298;53.638;9.876;2023-10-09T14:19:22;9.55;;;5.78;;
56399;SDS011;42298;53.638;9.876;2023-10-09T14:21:47;8.73;;;5.38;;
56399;SDS011;42298;53.638;9.876;2023-10-09T14:24:14;7.82;;;4.68;;
56399;SDS011;42298;53.638;9.876;2023-10-09T14:26:40;8.77;;;5.20;;
56399;SDS011;42298;53.638;9.876;2023-10-09T14:29:06;9.18;;;5.07;;
56399;SDS011;42298;53.638;9.876;2023-10-09T14:31:32;8.40;;;4.45;;
56399;SDS011;42298;53.638;9.876;2023-10-09T14:34:03;7.55;;;4.93;;
56399;SDS011;42298;53.638;9.876;2023-10-09T14:36:29;9.02;;;5.13;;
56399;SDS011;42298;53.638;9.876;2023-10-09T14:38:58;6.95;;;4.30;;
56399;SDS011;42298;53.638;9.876;2023-10-09T14:41:27;9.65;;;5.38;;
56399;SDS011;42298;53.638;9.876;2023-10-09T14:43:53;10.10;;;5.68;;
56399;SDS011;42298;53.638;9.876;2023-10-09T14:46:19;12.52;;;7.53;;
56399;SDS011;42298;53.638;9.876;2023-10-09T14:48:50;11.73;;;7.13;;
56399;SDS011;42298;53.638;9.876;2023-10-09T14:51:18;12.13;;;7.57;;
56399;SDS011;42298;53.638;9.876;2023-10-09T14:53:53;11.70;;;6.65;;
56399;SDS011;42298;53.638;9.876;2023-10-09T14:56:22;10.43;;;6.15;;
56399;SDS011;42298;53.638;9.876;2023-10-09T14:58:53;8.43;;;5.60;;
56399;SDS011;42298;53.638;9.876;2023-10-09T15:01:26;9.77;;;6.00;;
56399;SDS011;42298;53.638;9.876;2023-10-09T15:03:56;7.97;;;5.43;;
56399;SDS011;42298;53.638;9.876;2023-10-09T15:06:28;11.13;;;6.85;;
56399;SDS011;42298;53.638;9.876;2023-10-09T15:08:55;9.45;;;5.40;;
56399;SDS011;42298;53.638;9.876;2023-10-09T15:11:23;9.80;;;6.18;;
56399;SDS011;42298;53.638;9.876;2023-10-09T15:13:50;9.32;;;6.28;;
56399;SDS011;42298;53.638;9.876;2023-10-09T15:16:18;9.40;;;6.00;;
56399;SDS011;42298;53.638;9.876;2023-10-09T15:18:46;10.45;;;6.25;;
56399;SDS011;42298;53.638;9.876;2023-10-09T15:21:13;11.20;;;7.00;;
56399;SDS011;42298;53.638;9.876;2023-10-09T15:23:38;9.80;;;6.55;;
56399;SDS011;42298;53.638;9.876;2023-10-09T15:26:04;10.23;;;6.22;;
56399;SDS011;42298;53.638;9.876;2023-10-09T15:28:31;8.63;;;5.65;;
56399;SDS011;42298;53.638;9.876;2023-10-09T15:30:57;11.23;;;6.45;;
56399;SDS011;42298;53.638;9.876;2023-10-09T15:33:24;11.82;;;6.75;;
56399;SDS011;42298;53.638;9.876;2023-10-09T15:35:55;8.85;;;5.32;;
56399;SDS011;42298;53.638;9.876;2023-10-09T15:38:21;7.97;;;5.03;;
56399;SDS011;42298;53.638;9.876;2023-10-09T15:40:46;8.52;;;5.10;;
56399;SDS011;42298;53.638;9.876;2023-10-09T15:43:12;9.77;;;5.43;;
56399;SDS011;42298;53.638;9.876;2023-10-09T15:45:44;9.15;;;5.70;;
56399;SDS011;42298;53.638;9.876;2023-10-09T15:48:13;10.25;;;5.00;;
56399;SDS011;42298;53.638;9.876;2023-10-09T15:50:40;8.25;;;4.82;;
56399;SDS011;42298;53.638;9.876;2023-10-09T15:53:13;9.23;;;5.55;;
56399;SDS011;42298;53.638;9.876;2023-10-09T15:55:38;9.70;;;5.53;;